sensor_id;sensor_type;location;lat;lon;timestamp;P1;durP1;ratioP1;P2;durP2;ratioP2
20140;SDS011;10231;47.702;9.826;2022-12-04T00:01:46;16.37;;;11.40;;
20140;SDS011;10231;47.702;9.826;2022-12-04T00:04:12;17.00;;;12.30;;
20140;SDS011;10231;47.702;9.826;2022-12-04T00:06:38;20.07;;;12.80;;
20140;SDS011;10231;47.702;9.826;2022-12-04T00:09:03;19.40;;;13.57;;
20140;SDS011;10231;47.702;9.826;2022-12-04T00:11:30;19.07;;;12.83;;
20140;SDS011;10231;47.702;9.826;2022-12-04T00:13:57;16.47;;;11.97;;
20140;SDS011;10231;47.702;9.826;2022-12-04T00:16:24;17.93;;;12.60;;
20140;SDS011;10231;47.702;9.826;2022-12-04T00:18:51;16.70;;;11.33;;
20140;SDS011;10231;47.702;9.826;2022-12-04T00:21:17;19.00;;;12.80;;
20140;SDS011;10231;47.702;9.826;2022-12-04T00:23:44;17.73;;;12.30;;
20140;SDS011;10231;47.702;9.826;2022-12-04T00:26:12;18.97;;;12.77;;
20140;SDS011;10231;47.702;9.826;2022-12-04T00:28:39;17.70;;;12.03;;
20140;SDS011;10231;47.702;9.826;2022-12-04T00:31:06;18.17;;;12.80;;
20140;SDS011;10231;47.702;9.826;2022-12-04T00:33:33;18.37;;;12.40;;
20140;SDS011;10231;47.702;9.826;2022-12-04T00:36:00;18.20;;;11.87;;
20140;SDS011;10231;47.702;9.826;2022-12-04T00:38:27;17.17;;;11.70;;
20140;SDS011;10231;47.702;9.826;2022-12-04T00:40:53;17.67;;;12.20;;
20140;SDS011;10231;47.702;9.826;2022-12-04T00:43:19;18.03;;;12.33;;
20140;SDS011;10231;47.702;9.826;2022-12-04T00:45:45;17.43;;;11.77;;
20140;SDS011;10231;47.702;9.826;2022-12-04T00:48:11;17.83;;;12.40;;
20140;SDS011;10231;47.702;9.826;2022-12-04T00:50:37;17.03;;;12.33;;
20140;SDS011;10231;47.702;9.826;2022-12-04T00:53:02;18.90;;;12.33;;
20140;SDS011;10231;47.702;9.826;2022-12-04T00:55:28;16.97;;;12.10;;
20140;SDS011;10231;47.702;9.826;2022-12-04T00:57:54;19.43;;;12.63;;
20140;SDS011;10231;47.702;9.826;2022-12-04T01:00:20;18.67;;;12.00;;
20140;SDS011;10231;47.702;9.826;2022-12-04T01:02:46;17.97;;;12.53;;
20140;SDS011;10231;47.702;9.826;2022-12-04T01:05:11;17.37;;;12.60;;
20140;SDS011;10231;47.702;9.826;2022-12-04T01:07:37;17.30;;;12.37;;
20140;SDS011;10231;47.702;9.826;2022-12-04T01:10:04;17.37;;;12.70;;
20140;SDS011;10231;47.702;9.826;2022-12-04T01:12:31;18.80;;;12.50;;
20140;SDS011;10231;47.702;9.826;2022-12-04T01:14:56;16.37;;;11.77;;
20140;SDS011;10231;47.702;9.826;2022-12-04T01:17:22;19.53;;;12.87;;
20140;SDS011;10231;47.702;9.826;2022-12-04T01:19:48;19.20;;;12.40;;
20140;SDS011;10231;47.702;9.826;2022-12-04T01:22:13;16.77;;;11.57;;
20140;SDS011;10231;47.702;9.826;2022-12-04T01:24:39;18.43;;;12.77;;
20140;SDS011;10231;47.702;9.826;2022-12-04T01:27:04;18.67;;;11.83;;
20140;SDS011;10231;47.702;9.826;2022-12-04T01:29:30;19.53;;;12.07;;
20140;SDS011;10231;47.702;9.826;2022-12-04T01:31:55;18.67;;;13.03;;
20140;SDS011;10231;47.702;9.826;2022-12-04T01:34:21;18.53;;;13.43;;
20140;SDS011;10231;47.702;9.826;2022-12-04T01:36:49;16.80;;;12.30;;
20140;SDS011;10231;47.702;9.826;2022-12-04T01:39:15;18.60;;;13.37;;
20140;SDS011;10231;47.702;9.826;2022-12-04T01:41:40;20.90;;;12.43;;
20140;SDS011;10231;47.702;9.826;2022-12-04T01:46:43;16.90;;;12.30;;
20140;SDS011;10231;47.702;9.826;2022-12-04T01:49:20;19.83;;;12.13;;
20140;SDS011;10231;47.702;9.826;2022-12-04T01:51:49;16.03;;;11.73;;
20140;SDS011;10231;47.702;9.826;2022-12-04T01:54:25;16.73;;;11.20;;
20140;SDS011;10231;47.702;9.826;2022-12-04T01:57:01;18.80;;;12.47;;
20140;SDS011;10231;47.702;9.826;2022-12-04T02:00:22;19.47;;;12.30;;
20140;SDS011;10231;47.702;9.826;2022-12-04T02:02:29;18.67;;;12.60;;
20140;SDS011;10231;47.702;9.826;2022-12-04T02:05:02;15.70;;;11.37;;
20140;SDS011;10231;47.702;9.826;2022-12-04T02:07:29;16.47;;;11.43;;
20140;SDS011;10231;47.702;9.826;2022-12-04T02:09:55;17.80;;;12.40;;
20140;SDS011;10231;47.702;9.826;2022-12-04T02:15:01;19.20;;;12.97;;
20140;SDS011;10231;47.702;9.826;2022-12-04T02:17:56;18.13;;;12.57;;
20140;SDS011;10231;47.702;9.826;2022-12-04T02:20:51;18.73;;;12.93;;
20140;SDS011;10231;47.702;9.826;2022-12-04T02:23:57;19.57;;;12.87;;
20140;SDS011;10231;47.702;9.826;2022-12-04T02:34:58;15.17;;;11.17;;
20140;SDS011;10231;47.702;9.826;2022-12-04T02:37:43;19.17;;;13.07;;
20140;SDS011;10231;47.702;9.826;2022-12-04T02:40:19;18.30;;;12.47;;
20140;SDS011;10231;47.702;9.826;2022-12-04T02:45:39;17.87;;;12.87;;
20140;SDS011;10231;47.702;9.826;2022-12-04T02:48:17;17.17;;;12.27;;
20140;SDS011;10231;47.702;9.826;2022-12-04T02:50:45;17.20;;;12.20;;
20140;SDS011;10231;47.702;9.826;2022-12-04T02:53:20;14.50;;;10.90;;
20140;SDS011;10231;47.702;9.826;2022-12-04T02:55:51;16.93;;;12.10;;
20140;SDS011;10231;47.702;9.826;2022-12-04T02:58:21;16.27;;;11.00;;
20140;SDS011;10231;47.702;9.826;2022-12-04T03:00:51;16.47;;;11.70;;
20140;SDS011;10231;47.702;9.826;2022-12-04T03:03:19;15.90;;;11.07;;
20140;SDS011;10231;47.702;9.826;2022-12-04T03:08:14;13.97;;;11.17;;
20140;SDS011;10231;47.702;9.826;2022-12-04T03:10:47;15.23;;;10.60;;
20140;SDS011;10231;47.702;9.826;2022-12-04T03:13:19;15.33;;;11.33;;
20140;SDS011;10231;47.702;9.826;2022-12-04T03:15:54;15.47;;;11.67;;
20140;SDS011;10231;47.702;9.826;2022-12-04T03:18:30;14.37;;;10.73;;
20140;SDS011;10231;47.702;9.826;2022-12-04T03:21:08;13.57;;;10.50;;
20140;SDS011;10231;47.702;9.826;2022-12-04T03:23:43;13.87;;;10.47;;
20140;SDS011;10231;47.702;9.826;2022-12-04T03:26:16;13.80;;;10.20;;
20140;SDS011;10231;47.702;9.826;2022-12-04T03:31:38;14.23;;;10.83;;
20140;SDS011;10231;47.702;9.826;2022-12-04T03:34:08;15.20;;;10.67;;
20140;SDS011;10231;47.702;9.826;2022-12-04T03:36:37;15.47;;;10.93;;
20140;SDS011;10231;47.702;9.826;2022-12-04T03:39:17;13.70;;;10.90;;
20140;SDS011;10231;47.702;9.826;2022-12-04T03:41:53;13.60;;;10.47;;
20140;SDS011;10231;47.702;9.826;2022-12-04T03:50:08;13.43;;;10.17;;
20140;SDS011;10231;47.702;9.826;2022-12-04T03:52:46;13.40;;;10.10;;
20140;SDS011;10231;47.702;9.826;2022-12-04T03:55:28;13.93;;;10.47;;
20140;SDS011;10231;47.702;9.826;2022-12-04T03:58:14;15.10;;;10.67;;
20140;SDS011;10231;47.702;9.826;2022-12-04T04:00:45;14.10;;;10.37;;
20140;SDS011;10231;47.702;9.826;2022-12-04T04:03:16;14.90;;;10.57;;
20140;SDS011;10231;47.702;9.826;2022-12-04T04:05:44;14.30;;;10.37;;
20140;SDS011;10231;47.702;9.826;2022-12-04T04:08:15;12.80;;;10.33;;
20140;SDS011;10231;47.702;9.826;2022-12-04T04:11:04;15.60;;;10.97;;
20140;SDS011;10231;47.702;9.826;2022-12-04T04:14:06;14.60;;;10.80;;
20140;SDS011;10231;47.702;9.826;2022-12-04T04:16:57;17.07;;;11.70;;
20140;SDS011;10231;47.702;9.826;2022-12-04T04:19:45;15.87;;;11.63;;
20140;SDS011;10231;47.702;9.826;2022-12-04T04:22:32;15.63;;;11.40;;
20140;SDS011;10231;47.702;9.826;2022-12-04T04:25:19;14.53;;;10.57;;
20140;SDS011;10231;47.702;9.826;2022-12-04T04:27:54;15.77;;;11.10;;
20140;SDS011;10231;47.702;9.826;2022-12-04T04:30:22;15.37;;;11.03;;
20140;SDS011;10231;47.702;9.826;2022-12-04T04:32:53;16.13;;;11.03;;
20140;SDS011;10231;47.702;9.826;2022-12-04T04:38:08;15.00;;;11.07;;
20140;SDS011;10231;47.702;9.826;2022-12-04T04:40:37;14.67;;;10.80;;
20140;SDS011;10231;47.702;9.826;2022-12-04T04:45:38;15.77;;;11.30;;
20140;SDS011;10231;47.702;9.826;2022-12-04T04:48:15;16.90;;;10.70;;
20140;SDS011;10231;47.702;9.826;2022-12-04T04:50:48;16.27;;;12.17;;
20140;SDS011;10231;47.702;9.826;2022-12-04T04:53:19;14.93;;;11.00;;
20140;SDS011;10231;47.702;9.826;2022-12-04T04:55:47;14.70;;;10.50;;
20140;SDS011;10231;47.702;9.826;2022-12-04T04:58:14;15.20;;;11.43;;
20140;SDS011;10231;47.702;9.826;2022-12-04T05:03:26;17.27;;;12.00;;
20140;SDS011;10231;47.702;9.826;2022-12-04T05:05:52;15.07;;;11.03;;
20140;SDS011;10231;47.702;9.826;2022-12-04T05:08:18;15.73;;;11.50;;
20140;SDS011;10231;47.702;9.826;2022-12-04T05:10:44;17.43;;;11.77;;
20140;SDS011;10231;47.702;9.826;2022-12-04T05:13:13;14.97;;;11.40;;
20140;SDS011;10231;47.702;9.826;2022-12-04T05:15:39;14.90;;;11.23;;
20140;SDS011;10231;47.702;9.826;2022-12-04T05:18:05;16.13;;;11.30;;
20140;SDS011;10231;47.702;9.826;2022-12-04T05:20:31;15.23;;;10.40;;
20140;SDS011;10231;47.702;9.826;2022-12-04T05:22:57;15.43;;;11.43;;
20140;SDS011;10231;47.702;9.826;2022-12-04T05:25:23;15.60;;;11.53;;
20140;SDS011;10231;47.702;9.826;2022-12-04T05:27:48;15.40;;;11.27;;
20140;SDS011;10231;47.702;9.826;2022-12-04T05:30:14;16.20;;;11.33;;
20140;SDS011;10231;47.702;9.826;2022-12-04T05:32:40;16.17;;;11.73;;
20140;SDS011;10231;47.702;9.826;2022-12-04T05:35:06;15.93;;;10.73;;
20140;SDS011;10231;47.702;9.826;2022-12-04T05:37:35;16.83;;;12.17;;
20140;SDS011;10231;47.702;9.826;2022-12-04T05:40:02;15.93;;;11.23;;
20140;SDS011;10231;47.702;9.826;2022-12-04T05:42:29;15.97;;;10.87;;
20140;SDS011;10231;47.702;9.826;2022-12-04T05:44:55;15.07;;;10.97;;
20140;SDS011;10231;47.702;9.826;2022-12-04T05:47:20;15.37;;;10.73;;
20140;SDS011;10231;47.702;9.826;2022-12-04T05:49:46;17.10;;;10.93;;
20140;SDS011;10231;47.702;9.826;2022-12-04T05:52:12;15.80;;;11.67;;
20140;SDS011;10231;47.702;9.826;2022-12-04T05:54:38;19.10;;;12.63;;
20140;SDS011;10231;47.702;9.826;2022-12-04T05:57:04;19.47;;;12.57;;
20140;SDS011;10231;47.702;9.826;2022-12-04T05:59:30;17.13;;;11.70;;
20140;SDS011;10231;47.702;9.826;2022-12-04T06:01:56;17.03;;;11.23;;
20140;SDS011;10231;47.702;9.826;2022-12-04T06:04:21;16.30;;;11.17;;
20140;SDS011;10231;47.702;9.826;2022-12-04T06:06:47;18.00;;;11.97;;
20140;SDS011;10231;47.702;9.826;2022-12-04T06:09:12;17.13;;;11.53;;
20140;SDS011;10231;47.702;9.826;2022-12-04T06:11:39;17.27;;;12.37;;
20140;SDS011;10231;47.702;9.826;2022-12-04T06:14:07;16.03;;;12.20;;
20140;SDS011;10231;47.702;9.826;2022-12-04T06:16:35;18.33;;;12.20;;
20140;SDS011;10231;47.702;9.826;2022-12-04T06:19:04;18.33;;;12.53;;
20140;SDS011;10231;47.702;9.826;2022-12-04T06:21:33;18.70;;;12.27;;
20140;SDS011;10231;47.702;9.826;2022-12-04T06:24:00;20.43;;;13.13;;
20140;SDS011;10231;47.702;9.826;2022-12-04T06:26:26;18.87;;;12.60;;
20140;SDS011;10231;47.702;9.826;2022-12-04T06:28:53;17.67;;;12.57;;
20140;SDS011;10231;47.702;9.826;2022-12-04T06:31:21;17.23;;;12.37;;
20140;SDS011;10231;47.702;9.826;2022-12-04T06:33:47;17.40;;;11.80;;
20140;SDS011;10231;47.702;9.826;2022-12-04T06:36:15;17.33;;;12.47;;
20140;SDS011;10231;47.702;9.826;2022-12-04T06:38:42;19.40;;;13.17;;
20140;SDS011;10231;47.702;9.826;2022-12-04T06:41:10;19.83;;;13.00;;
20140;SDS011;10231;47.702;9.826;2022-12-04T06:43:37;19.63;;;13.57;;
20140;SDS011;10231;47.702;9.826;2022-12-04T06:46:05;19.10;;;13.23;;
20140;SDS011;10231;47.702;9.826;2022-12-04T06:48:32;17.70;;;12.70;;
20140;SDS011;10231;47.702;9.826;2022-12-04T06:50:59;17.30;;;11.80;;
20140;SDS011;10231;47.702;9.826;2022-12-04T06:53:25;16.97;;;12.53;;
20140;SDS011;10231;47.702;9.826;2022-12-04T06:55:52;16.93;;;12.47;;
20140;SDS011;10231;47.702;9.826;2022-12-04T06:58:17;16.10;;;11.13;;
20140;SDS011;10231;47.702;9.826;2022-12-04T07:00:43;16.10;;;11.50;;
20140;SDS011;10231;47.702;9.826;2022-12-04T07:03:08;15.87;;;11.60;;
20140;SDS011;10231;47.702;9.826;2022-12-04T07:05:34;16.43;;;11.53;;
20140;SDS011;10231;47.702;9.826;2022-12-04T07:07:59;16.70;;;11.23;;
20140;SDS011;10231;47.702;9.826;2022-12-04T07:10:25;16.97;;;11.77;;
20140;SDS011;10231;47.702;9.826;2022-12-04T07:12:50;18.80;;;12.33;;
20140;SDS011;10231;47.702;9.826;2022-12-04T07:15:16;17.53;;;12.13;;
20140;SDS011;10231;47.702;9.826;2022-12-04T07:17:42;17.70;;;12.53;;
20140;SDS011;10231;47.702;9.826;2022-12-04T07:20:07;19.77;;;13.67;;
20140;SDS011;10231;47.702;9.826;2022-12-04T07:22:33;18.10;;;12.67;;
20140;SDS011;10231;47.702;9.826;2022-12-04T07:24:59;18.10;;;12.67;;
20140;SDS011;10231;47.702;9.826;2022-12-04T07:27:24;17.77;;;13.23;;
20140;SDS011;10231;47.702;9.826;2022-12-04T07:29:50;18.47;;;12.70;;
20140;SDS011;10231;47.702;9.826;2022-12-04T07:32:16;17.37;;;12.53;;
20140;SDS011;10231;47.702;9.826;2022-12-04T07:34:42;20.13;;;12.63;;
20140;SDS011;10231;47.702;9.826;2022-12-04T07:37:08;18.43;;;12.87;;
20140;SDS011;10231;47.702;9.826;2022-12-04T07:39:33;18.07;;;12.40;;
20140;SDS011;10231;47.702;9.826;2022-12-04T07:41:59;19.37;;;13.17;;
20140;SDS011;10231;47.702;9.826;2022-12-04T07:44:24;17.40;;;11.73;;
20140;SDS011;10231;47.702;9.826;2022-12-04T07:46:50;19.20;;;12.80;;
20140;SDS011;10231;47.702;9.826;2022-12-04T07:49:15;16.97;;;11.63;;
20140;SDS011;10231;47.702;9.826;2022-12-04T07:51:41;18.20;;;12.60;;
20140;SDS011;10231;47.702;9.826;2022-12-04T07:54:06;18.13;;;12.37;;
20140;SDS011;10231;47.702;9.826;2022-12-04T07:56:33;18.40;;;11.90;;
20140;SDS011;10231;47.702;9.826;2022-12-04T07:58:58;21.03;;;12.50;;
20140;SDS011;10231;47.702;9.826;2022-12-04T08:01:24;18.00;;;12.37;;
20140;SDS011;10231;47.702;9.826;2022-12-04T08:03:51;17.17;;;11.37;;
20140;SDS011;10231;47.702;9.826;2022-12-04T08:06:19;17.40;;;11.53;;
20140;SDS011;10231;47.702;9.826;2022-12-04T08:08:46;19.20;;;12.37;;
20140;SDS011;10231;47.702;9.826;2022-12-04T08:11:14;17.03;;;11.70;;
20140;SDS011;10231;47.702;9.826;2022-12-04T08:13:41;17.40;;;11.67;;
20140;SDS011;10231;47.702;9.826;2022-12-04T08:16:07;19.63;;;12.33;;
20140;SDS011;10231;47.702;9.826;2022-12-04T08:18:34;16.97;;;11.60;;
20140;SDS011;10231;47.702;9.826;2022-12-04T08:21:07;16.47;;;11.17;;
20140;SDS011;10231;47.702;9.826;2022-12-04T08:23:34;17.90;;;11.87;;
20140;SDS011;10231;47.702;9.826;2022-12-04T08:26:01;17.27;;;11.90;;
20140;SDS011;10231;47.702;9.826;2022-12-04T08:28:28;16.60;;;11.53;;
20140;SDS011;10231;47.702;9.826;2022-12-04T08:30:54;17.00;;;11.43;;
20140;SDS011;10231;47.702;9.826;2022-12-04T08:33:25;13.47;;;10.47;;
20140;SDS011;10231;47.702;9.826;2022-12-04T08:35:51;17.63;;;11.90;;
20140;SDS011;10231;47.702;9.826;2022-12-04T08:38:16;15.30;;;11.27;;
20140;SDS011;10231;47.702;9.826;2022-12-04T08:40:42;17.10;;;11.10;;
20140;SDS011;10231;47.702;9.826;2022-12-04T08:43:07;14.50;;;9.73;;
20140;SDS011;10231;47.702;9.826;2022-12-04T08:45:33;13.50;;;9.93;;
20140;SDS011;10231;47.702;9.826;2022-12-04T08:47:58;12.90;;;9.50;;
20140;SDS011;10231;47.702;9.826;2022-12-04T08:50:24;13.73;;;9.77;;
20140;SDS011;10231;47.702;9.826;2022-12-04T08:52:49;13.47;;;9.30;;
20140;SDS011;10231;47.702;9.826;2022-12-04T08:55:15;11.97;;;9.57;;
20140;SDS011;10231;47.702;9.826;2022-12-04T08:57:41;12.47;;;10.10;;
20140;SDS011;10231;47.702;9.826;2022-12-04T09:00:06;12.73;;;8.90;;
20140;SDS011;10231;47.702;9.826;2022-12-04T09:02:32;12.63;;;10.10;;
20140;SDS011;10231;47.702;9.826;2022-12-04T09:04:58;12.80;;;9.67;;
20140;SDS011;10231;47.702;9.826;2022-12-04T09:07:23;13.47;;;10.33;;
20140;SDS011;10231;47.702;9.826;2022-12-04T09:09:49;13.23;;;9.60;;
20140;SDS011;10231;47.702;9.826;2022-12-04T09:12:14;12.63;;;9.67;;
20140;SDS011;10231;47.702;9.826;2022-12-04T09:14:40;14.60;;;10.00;;
20140;SDS011;10231;47.702;9.826;2022-12-04T09:17:05;14.97;;;10.90;;
20140;SDS011;10231;47.702;9.826;2022-12-04T09:19:31;14.10;;;9.67;;
20140;SDS011;10231;47.702;9.826;2022-12-04T09:21:59;15.17;;;10.97;;
20140;SDS011;10231;47.702;9.826;2022-12-04T09:24:24;15.63;;;10.83;;
20140;SDS011;10231;47.702;9.826;2022-12-04T09:26:50;16.23;;;11.23;;
20140;SDS011;10231;47.702;9.826;2022-12-04T09:29:16;16.03;;;11.50;;
20140;SDS011;10231;47.702;9.826;2022-12-04T09:31:41;16.73;;;11.13;;
20140;SDS011;10231;47.702;9.826;2022-12-04T09:34:07;16.50;;;11.43;;
20140;SDS011;10231;47.702;9.826;2022-12-04T09:36:32;16.63;;;11.50;;
20140;SDS011;10231;47.702;9.826;2022-12-04T09:38:58;15.67;;;11.57;;
20140;SDS011;10231;47.702;9.826;2022-12-04T09:41:32;17.33;;;12.07;;
20140;SDS011;10231;47.702;9.826;2022-12-04T09:44:04;101.37;;;19.43;;
20140;SDS011;10231;47.702;9.826;2022-12-04T09:49:24;18.80;;;11.87;;
20140;SDS011;10231;47.702;9.826;2022-12-04T09:51:53;16.67;;;12.03;;
20140;SDS011;10231;47.702;9.826;2022-12-04T09:54:26;19.87;;;13.30;;
20140;SDS011;10231;47.702;9.826;2022-12-04T09:57:00;18.17;;;11.93;;
20140;SDS011;10231;47.702;9.826;2022-12-04T09:59:29;19.67;;;12.63;;
20140;SDS011;10231;47.702;9.826;2022-12-04T10:04:59;17.73;;;11.67;;
20140;SDS011;10231;47.702;9.826;2022-12-04T10:07:30;18.80;;;11.97;;
20140;SDS011;10231;47.702;9.826;2022-12-04T10:10:05;16.77;;;11.50;;
20140;SDS011;10231;47.702;9.826;2022-12-04T10:13:01;17.10;;;11.33;;
20140;SDS011;10231;47.702;9.826;2022-12-04T10:15:38;20.33;;;15.60;;
20140;SDS011;10231;47.702;9.826;2022-12-04T10:18:43;17.23;;;12.43;;
20140;SDS011;10231;47.702;9.826;2022-12-04T10:21:30;18.43;;;13.10;;
20140;SDS011;10231;47.702;9.826;2022-12-04T10:24:10;16.30;;;11.30;;
20140;SDS011;10231;47.702;9.826;2022-12-04T10:26:59;16.33;;;11.13;;
20140;SDS011;10231;47.702;9.826;2022-12-04T10:29:32;16.67;;;11.10;;
20140;SDS011;10231;47.702;9.826;2022-12-04T10:32:33;17.67;;;11.47;;
20140;SDS011;10231;47.702;9.826;2022-12-04T10:34:57;15.30;;;11.30;;
20140;SDS011;10231;47.702;9.826;2022-12-04T10:37:29;17.27;;;11.77;;
20140;SDS011;10231;47.702;9.826;2022-12-04T10:40:09;17.53;;;11.77;;
20140;SDS011;10231;47.702;9.826;2022-12-04T10:42:49;16.60;;;11.60;;
20140;SDS011;10231;47.702;9.826;2022-12-04T10:45:20;17.57;;;11.70;;
20140;SDS011;10231;47.702;9.826;2022-12-04T10:47:47;16.70;;;11.60;;
20140;SDS011;10231;47.702;9.826;2022-12-04T10:50:16;16.23;;;10.97;;
20140;SDS011;10231;47.702;9.826;2022-12-04T10:52:45;17.77;;;11.53;;
20140;SDS011;10231;47.702;9.826;2022-12-04T10:55:11;18.10;;;13.17;;
20140;SDS011;10231;47.702;9.826;2022-12-04T10:57:39;17.33;;;12.17;;
20140;SDS011;10231;47.702;9.826;2022-12-04T11:00:22;17.73;;;12.07;;
20140;SDS011;10231;47.702;9.826;2022-12-04T11:02:49;17.33;;;11.97;;
20140;SDS011;10231;47.702;9.826;2022-12-04T11:05:23;20.30;;;13.30;;
20140;SDS011;10231;47.702;9.826;2022-12-04T11:08:18;19.67;;;12.57;;
20140;SDS011;10231;47.702;9.826;2022-12-04T11:10:57;19.10;;;13.43;;
20140;SDS011;10231;47.702;9.826;2022-12-04T11:13:25;18.23;;;11.70;;
20140;SDS011;10231;47.702;9.826;2022-12-04T11:15:52;20.57;;;12.57;;
20140;SDS011;10231;47.702;9.826;2022-12-04T11:20:50;17.17;;;11.37;;
20140;SDS011;10231;47.702;9.826;2022-12-04T11:23:40;17.43;;;11.63;;
20140;SDS011;10231;47.702;9.826;2022-12-04T11:26:07;17.47;;;12.47;;
20140;SDS011;10231;47.702;9.826;2022-12-04T11:28:34;18.53;;;12.50;;
20140;SDS011;10231;47.702;9.826;2022-12-04T11:31:04;17.73;;;12.67;;
20140;SDS011;10231;47.702;9.826;2022-12-04T11:33:54;19.03;;;14.00;;
20140;SDS011;10231;47.702;9.826;2022-12-04T11:36:29;18.27;;;12.30;;
20140;SDS011;10231;47.702;9.826;2022-12-04T11:41:37;18.73;;;12.60;;
20140;SDS011;10231;47.702;9.826;2022-12-04T11:44:06;16.73;;;10.67;;
20140;SDS011;10231;47.702;9.826;2022-12-04T11:46:50;15.63;;;10.90;;
20140;SDS011;10231;47.702;9.826;2022-12-04T11:49:21;17.30;;;11.03;;
20140;SDS011;10231;47.702;9.826;2022-12-04T11:51:53;13.13;;;10.00;;
20140;SDS011;10231;47.702;9.826;2022-12-04T11:54:49;16.47;;;11.10;;
20140;SDS011;10231;47.702;9.826;2022-12-04T12:00:15;16.47;;;11.83;;
20140;SDS011;10231;47.702;9.826;2022-12-04T12:03:05;19.40;;;11.53;;
20140;SDS011;10231;47.702;9.826;2022-12-04T12:16:56;16.20;;;10.73;;
20140;SDS011;10231;47.702;9.826;2022-12-04T12:25:17;14.70;;;10.40;;
20140;SDS011;10231;47.702;9.826;2022-12-04T12:30:52;16.33;;;11.10;;
20140;SDS011;10231;47.702;9.826;2022-12-04T12:36:35;16.07;;;10.90;;
20140;SDS011;10231;47.702;9.826;2022-12-04T12:39:09;15.37;;;11.30;;
20140;SDS011;10231;47.702;9.826;2022-12-04T12:41:41;15.90;;;11.77;;
20140;SDS011;10231;47.702;9.826;2022-12-04T12:46:48;14.90;;;10.73;;
20140;SDS011;10231;47.702;9.826;2022-12-04T12:49:28;15.10;;;11.07;;
20140;SDS011;10231;47.702;9.826;2022-12-04T12:52:19;17.43;;;11.90;;
20140;SDS011;10231;47.702;9.826;2022-12-04T12:55:01;14.60;;;10.53;;
20140;SDS011;10231;47.702;9.826;2022-12-04T12:57:37;14.33;;;10.30;;
20140;SDS011;10231;47.702;9.826;2022-12-04T13:00:12;15.07;;;9.77;;
20140;SDS011;10231;47.702;9.826;2022-12-04T13:02:46;15.70;;;10.73;;
20140;SDS011;10231;47.702;9.826;2022-12-04T13:05:32;14.77;;;11.07;;
20140;SDS011;10231;47.702;9.826;2022-12-04T13:08:23;12.67;;;10.40;;
20140;SDS011;10231;47.702;9.826;2022-12-04T13:10:57;16.77;;;10.90;;
20140;SDS011;10231;47.702;9.826;2022-12-04T13:13:40;17.63;;;11.43;;
20140;SDS011;10231;47.702;9.826;2022-12-04T13:16:20;17.70;;;12.20;;
20140;SDS011;10231;47.702;9.826;2022-12-04T13:19:33;16.67;;;12.20;;
20140;SDS011;10231;47.702;9.826;2022-12-04T13:21:43;17.03;;;11.50;;
20140;SDS011;10231;47.702;9.826;2022-12-04T13:35:13;20.40;;;13.13;;
20140;SDS011;10231;47.702;9.826;2022-12-04T13:40:41;22.17;;;14.67;;
20140;SDS011;10231;47.702;9.826;2022-12-04T13:43:24;23.30;;;14.83;;
20140;SDS011;10231;47.702;9.826;2022-12-04T13:46:01;25.43;;;14.77;;
20140;SDS011;10231;47.702;9.826;2022-12-04T13:48:46;23.10;;;14.60;;
20140;SDS011;10231;47.702;9.826;2022-12-04T13:53:38;28.53;;;15.10;;
20140;SDS011;10231;47.702;9.826;2022-12-04T13:56:05;26.80;;;16.27;;
20140;SDS011;10231;47.702;9.826;2022-12-04T13:58:33;27.03;;;15.40;;
20140;SDS011;10231;47.702;9.826;2022-12-04T14:03:47;28.37;;;15.57;;
20140;SDS011;10231;47.702;9.826;2022-12-04T14:06:26;27.63;;;15.53;;
20140;SDS011;10231;47.702;9.826;2022-12-04T14:08:58;30.17;;;15.93;;
20140;SDS011;10231;47.702;9.826;2022-12-04T14:11:26;29.53;;;15.97;;
20140;SDS011;10231;47.702;9.826;2022-12-04T14:13:57;31.30;;;16.77;;
20140;SDS011;10231;47.702;9.826;2022-12-04T14:19:03;27.60;;;15.27;;
20140;SDS011;10231;47.702;9.826;2022-12-04T14:21:40;27.10;;;15.03;;
20140;SDS011;10231;47.702;9.826;2022-12-04T14:26:54;25.93;;;14.90;;
20140;SDS011;10231;47.702;9.826;2022-12-04T14:31:54;27.77;;;15.90;;
20140;SDS011;10231;47.702;9.826;2022-12-04T14:34:22;28.47;;;15.27;;
20140;SDS011;10231;47.702;9.826;2022-12-04T14:36:53;23.93;;;15.10;;
20140;SDS011;10231;47.702;9.826;2022-12-04T14:41:46;26.33;;;14.83;;
20140;SDS011;10231;47.702;9.826;2022-12-04T14:44:33;27.77;;;15.60;;
20140;SDS011;10231;47.702;9.826;2022-12-04T14:46:59;28.33;;;15.43;;
20140;SDS011;10231;47.702;9.826;2022-12-04T14:52:44;31.50;;;15.93;;
20140;SDS011;10231;47.702;9.826;2022-12-04T14:55:25;25.00;;;14.47;;
20140;SDS011;10231;47.702;9.826;2022-12-04T14:58:02;25.83;;;13.63;;
20140;SDS011;10231;47.702;9.826;2022-12-04T15:00:56;25.33;;;14.57;;
20140;SDS011;10231;47.702;9.826;2022-12-04T15:03:24;25.70;;;14.20;;
20140;SDS011;10231;47.702;9.826;2022-12-04T15:05:51;24.97;;;13.43;;
20140;SDS011;10231;47.702;9.826;2022-12-04T15:08:49;23.13;;;13.23;;
20140;SDS011;10231;47.702;9.826;2022-12-04T15:11:20;24.40;;;13.60;;
20140;SDS011;10231;47.702;9.826;2022-12-04T15:14:10;25.57;;;14.27;;
20140;SDS011;10231;47.702;9.826;2022-12-04T15:16:37;23.10;;;13.67;;
20140;SDS011;10231;47.702;9.826;2022-12-04T15:19:04;23.43;;;13.40;;
20140;SDS011;10231;47.702;9.826;2022-12-04T15:21:36;25.63;;;14.10;;
20140;SDS011;10231;47.702;9.826;2022-12-04T15:24:08;23.03;;;13.47;;
20140;SDS011;10231;47.702;9.826;2022-12-04T15:26:35;24.07;;;13.93;;
20140;SDS011;10231;47.702;9.826;2022-12-04T15:29:03;28.07;;;15.23;;
20140;SDS011;10231;47.702;9.826;2022-12-04T15:31:33;29.83;;;15.47;;
20140;SDS011;10231;47.702;9.826;2022-12-04T15:34:06;28.47;;;16.63;;
20140;SDS011;10231;47.702;9.826;2022-12-04T15:36:50;25.57;;;15.07;;
20140;SDS011;10231;47.702;9.826;2022-12-04T15:39:27;28.83;;;16.43;;
20140;SDS011;10231;47.702;9.826;2022-12-04T15:42:03;24.73;;;14.93;;
20140;SDS011;10231;47.702;9.826;2022-12-04T15:47:20;23.97;;;13.30;;
20140;SDS011;10231;47.702;9.826;2022-12-04T15:49:48;24.73;;;14.53;;
20140;SDS011;10231;47.702;9.826;2022-12-04T15:52:18;26.23;;;14.03;;
20140;SDS011;10231;47.702;9.826;2022-12-04T15:55:00;22.97;;;14.10;;
20140;SDS011;10231;47.702;9.826;2022-12-04T16:00:00;23.07;;;13.83;;
20140;SDS011;10231;47.702;9.826;2022-12-04T16:02:33;27.00;;;14.10;;
20140;SDS011;10231;47.702;9.826;2022-12-04T16:05:11;26.80;;;15.27;;
20140;SDS011;10231;47.702;9.826;2022-12-04T16:07:46;25.40;;;14.03;;
20140;SDS011;10231;47.702;9.826;2022-12-04T16:10:19;23.93;;;14.50;;
20140;SDS011;10231;47.702;9.826;2022-12-04T16:12:50;26.73;;;15.03;;
20140;SDS011;10231;47.702;9.826;2022-12-04T16:15:20;29.17;;;16.13;;
20140;SDS011;10231;47.702;9.826;2022-12-04T16:17:46;25.53;;;15.40;;
20140;SDS011;10231;47.702;9.826;2022-12-04T16:20:12;28.43;;;16.67;;
20140;SDS011;10231;47.702;9.826;2022-12-04T16:22:38;24.13;;;13.60;;
20140;SDS011;10231;47.702;9.826;2022-12-04T16:25:05;23.10;;;13.60;;
20140;SDS011;10231;47.702;9.826;2022-12-04T16:27:32;24.67;;;13.43;;
20140;SDS011;10231;47.702;9.826;2022-12-04T16:29:57;24.40;;;14.00;;
20140;SDS011;10231;47.702;9.826;2022-12-04T16:32:24;22.27;;;14.27;;
20140;SDS011;10231;47.702;9.826;2022-12-04T16:34:53;21.07;;;13.40;;
20140;SDS011;10231;47.702;9.826;2022-12-04T16:37:19;22.80;;;13.73;;